Hlavní strana
METAR-TAF:

METAR-TAF

Letiště :

Blytheville, Arkansas, Spojené státy americké

zeměpisná šířka: 35-58N, zeměpisná délka: 089-57W, výška: 78 m

Aktuální stav počasí

Zpráva byla vytvořena před 23 minutami, v 21:50 UTC
Severoseverovýchodní vítr 13 kt s nárazy do 20 kt
Teplota 13°C
Vlhkost vzduchu 72%
Tlak 1020 hPa
Viditelnost: 16.1 km
Oblačno až skoro zataženo ve výšce 2100 ft
Zataženo ve výšce 3300 ft

METAR: KBYH 252150Z 02013G20KT 10SM BKN021 OVC033 13/08 A3013 RMK LAST

Čas: 17:13 (22:13 UTC)


TAF: chybějící

Stav a předpovědi počasí z více než 4 000 letišť (zprávy METAR a TAF).

Červené a žluté tečky na mapě představují dostupné meteorologické stanice.

Když kurzor umístíte na tečku, zobrazí se název stanice.

Pak kliknutím zobrazíte stav a předpověď počasí.

Chcete-li změnit mapu, kliknutím na zelené tlačítko se znaménkem +mapu přiblížíte, kliknutím na zelené tlačítko se znaménkem – mapu oddálíte a kliknutím na zelené šipky přejdete na sousední mapy.


METAR-TAF: